Time;durP1;ratioP1;P1;durP2;ratioP2;P2;SDS_P1;SDS_P2;PMS_P1;PMS_P2;Temp;Humidity;BMP_temperature;BMP_pressure;BME280_temperature;BME280_humidity;BME280_pressure;Samples;Min_cycle;Max_cycle;Signal;HPM_P1;HPM_P2
2021/12/23 00:01:41;;;;;;;20.10;14.20;;;;;;;;;;5111336;28;20047;-62
2021/12/23 00:04:09;;;;;;;17.70;13.75;;;;;;;;;;5110666;28;20059;-62
2021/12/23 00:06:35;;;;;;;18.50;14.48;;;;;;;;;;5110973;28;20059;-62
2021/12/23 00:09:03;;;;;;;17.88;13.70;;;;;;;;;;5111187;28;20047;-62
2021/12/23 00:11:30;;;;;;;19.38;14.32;;;;;;;;;;5114320;28;20490;-63
2021/12/23 00:14:02;;;;;;;18.30;13.93;;;;;;;;;;5114966;28;20190;-63
2021/12/23 00:16:42;;;;;;;17.73;13.93;;;;;;;;;;5115000;28;20069;-62
2021/12/23 00:19:18;;;;;;;21.73;13.85;;;;;;;;;;5115100;28;20105;-62
2021/12/23 00:24:28;;;;;;;17.85;13.27;;;;;;;;;;5114221;28;20134;-62
2021/12/23 00:26:55;;;;;;;18.85;13.65;;;;;;;;;;5114555;27;20383;-62
2021/12/23 00:29:21;;;;;;;16.98;13.05;;;;;;;;;;5114883;28;20039;-62
2021/12/23 00:31:48;;;;;;;17.20;13.32;;;;;;;;;;5113752;28;20052;-62
2021/12/23 00:34:15;;;;;;;21.00;14.75;;;;;;;;;;5114739;28;20112;-62
2021/12/23 00:36:44;;;;;;;17.20;13.52;;;;;;;;;;5114790;28;20555;-62
2021/12/23 00:39:11;;;;;;;17.25;13.45;;;;;;;;;;5114169;28;20096;-62
2021/12/23 00:41:37;;;;;;;18.75;13.98;;;;;;;;;;5114662;28;20446;-62
2021/12/23 00:44:03;;;;;;;19.33;13.98;;;;;;;;;;5114441;28;20052;-62
2021/12/23 00:46:30;;;;;;;18.75;13.98;;;;;;;;;;5113882;28;20044;-62
2021/12/23 00:48:57;;;;;;;18.63;14.90;;;;;;;;;;5114065;28;20048;-62
2021/12/23 00:51:23;;;;;;;17.90;13.93;;;;;;;;;;5114665;28;20047;-62
2021/12/23 00:53:52;;;;;;;18.48;13.60;;;;;;;;;;5113465;28;20402;-62
2021/12/23 00:56:18;;;;;;;19.15;14.25;;;;;;;;;;5114450;28;20413;-62
2021/12/23 00:58:45;;;;;;;17.52;13.65;;;;;;;;;;5114068;28;20081;-63
2021/12/23 01:01:12;;;;;;;17.83;13.68;;;;;;;;;;5113589;28;20043;-62
2021/12/23 01:03:38;;;;;;;18.65;14.55;;;;;;;;;;5114065;28;20048;-62
2021/12/23 01:06:06;;;;;;;16.50;13.90;;;;;;;;;;5113152;28;20125;-62
2021/12/23 01:08:32;;;;;;;18.15;13.93;;;;;;;;;;5114203;28;20482;-62
2021/12/23 01:11:00;;;;;;;18.45;13.82;;;;;;;;;;5113928;28;20040;-62
2021/12/23 01:13:28;;;;;;;18.38;13.90;;;;;;;;;;5113185;28;20122;-62
2021/12/23 01:16:01;;;;;;;20.13;14.75;;;;;;;;;;5113789;28;20062;-62
2021/12/23 01:18:31;;;;;;;17.45;13.68;;;;;;;;;;5114209;28;20044;-62
2021/12/23 01:21:04;;;;;;;18.55;14.13;;;;;;;;;;5111881;28;20089;-62
2021/12/23 01:23:34;;;;;;;18.23;13.95;;;;;;;;;;5113899;28;20048;-62
2021/12/23 01:26:00;;;;;;;17.42;13.45;;;;;;;;;;5113541;28;20468;-62
2021/12/23 01:28:27;;;;;;;16.65;13.35;;;;;;;;;;5112778;28;20130;-62
2021/12/23 01:30:53;;;;;;;18.90;13.98;;;;;;;;;;5113292;28;20498;-62
2021/12/23 01:33:20;;;;;;;18.35;14.50;;;;;;;;;;5113893;28;20039;-62
2021/12/23 01:35:50;;;;;;;17.23;13.65;;;;;;;;;;5112548;28;20679;-62
2021/12/23 01:38:16;;;;;;;19.75;14.02;;;;;;;;;;5113585;28;20051;-62
2021/12/23 01:40:46;;;;;;;17.92;13.88;;;;;;;;;;5113277;28;20101;-62
2021/12/23 01:43:12;;;;;;;18.48;13.63;;;;;;;;;;5112622;28;20093;-62
2021/12/23 01:45:43;;;;;;;18.23;13.68;;;;;;;;;;5113685;28;20077;-62
2021/12/23 01:48:09;;;;;;;19.67;13.98;;;;;;;;;;5112768;28;20052;-62
2021/12/23 01:50:37;;;;;;;19.00;13.75;;;;;;;;;;5113256;27;20043;-62
2021/12/23 01:53:04;;;;;;;17.85;13.57;;;;;;;;;;5113167;28;20048;-62
2021/12/23 01:55:30;;;;;;;18.42;13.70;;;;;;;;;;5112483;28;20048;-62
2021/12/23 01:57:58;;;;;;;18.50;14.00;;;;;;;;;;5112904;28;20044;-62
2021/12/23 02:00:25;;;;;;;17.27;14.07;;;;;;;;;;5113086;28;20039;-62
2021/12/23 02:02:52;;;;;;;16.92;13.98;;;;;;;;;;5112318;27;20044;-62
2021/12/23 02:05:19;;;;;;;18.85;14.30;;;;;;;;;;5112621;28;20443;-62
2021/12/23 02:07:45;;;;;;;18.17;14.02;;;;;;;;;;5112728;28;20047;-62
2021/12/23 02:10:11;;;;;;;17.50;13.82;;;;;;;;;;5111991;28;20040;-62
2021/12/23 02:12:38;;;;;;;19.27;14.15;;;;;;;;;;5113075;28;20387;-62
2021/12/23 02:15:06;;;;;;;16.73;13.52;;;;;;;;;;5112536;27;20551;-62
2021/12/23 02:17:35;;;;;;;17.20;13.20;;;;;;;;;;5112137;28;20046;-62
2021/12/23 02:20:03;;;;;;;17.13;13.50;;;;;;;;;;5112411;28;20800;-62
2021/12/23 02:22:29;;;;;;;16.38;13.10;;;;;;;;;;5112541;28;20039;-62
2021/12/23 02:24:55;;;;;;;17.33;13.35;;;;;;;;;;5111495;28;20043;-62
2021/12/23 02:27:21;;;;;;;18.08;13.82;;;;;;;;;;5112618;28;20511;-62
2021/12/23 02:29:48;;;;;;;18.13;13.50;;;;;;;;;;5112242;28;20048;-62
2021/12/23 02:32:14;;;;;;;17.23;13.60;;;;;;;;;;5111528;28;20039;-62
2021/12/23 02:34:40;;;;;;;17.88;14.43;;;;;;;;;;5112389;28;20081;-62
2021/12/23 02:37:08;;;;;;;18.40;14.18;;;;;;;;;;5112197;28;20047;-62
2021/12/23 02:39:34;;;;;;;22.13;15.13;;;;;;;;;;5111589;28;20054;-62
2021/12/23 02:42:01;;;;;;;18.83;13.98;;;;;;;;;;5112494;28;20047;-62
2021/12/23 02:44:27;;;;;;;17.70;13.70;;;;;;;;;;5111727;28;20044;-62
2021/12/23 02:46:53;;;;;;;17.30;13.60;;;;;;;;;;5111973;28;20044;-62
2021/12/23 02:49:20;;;;;;;18.20;14.15;;;;;;;;;;5112221;28;20104;-62
2021/12/23 02:51:46;;;;;;;16.92;13.77;;;;;;;;;;5111084;28;20097;-62
2021/12/23 02:54:13;;;;;;;19.67;14.88;;;;;;;;;;5112124;28;20044;-62
2021/12/23 02:56:40;;;;;;;18.13;14.27;;;;;;;;;;5112322;28;20109;-62
2021/12/23 02:59:06;;;;;;;19.05;14.50;;;;;;;;;;5111043;28;20478;-62
2021/12/23 03:01:32;;;;;;;17.83;14.23;;;;;;;;;;5111788;28;20044;-62
2021/12/23 03:03:59;;;;;;;19.73;14.63;;;;;;;;;;5111797;28;20085;-62
2021/12/23 03:06:25;;;;;;;18.40;14.60;;;;;;;;;;5110823;28;20054;-63
2021/12/23 03:08:54;;;;;;;19.48;15.10;;;;;;;;;;5111546;28;20482;-62
2021/12/23 03:11:22;;;;;;;18.02;14.40;;;;;;;;;;5111908;28;20043;-62
2021/12/23 03:13:49;;;;;;;18.73;15.60;;;;;;;;;;5110775;28;20043;-62
2021/12/23 03:16:16;;;;;;;18.90;14.80;;;;;;;;;;5111820;28;20093;-62
2021/12/23 03:18:42;;;;;;;19.50;14.50;;;;;;;;;;5111645;28;20096;-62
2021/12/23 03:21:08;;;;;;;19.27;14.57;;;;;;;;;;5110890;28;20052;-62
2021/12/23 03:23:34;;;;;;;19.70;14.38;;;;;;;;;;5111998;28;20101;-62
2021/12/23 03:26:01;;;;;;;20.10;15.75;;;;;;;;;;5111554;28;20043;-62
2021/12/23 03:28:28;;;;;;;19.17;13.80;;;;;;;;;;5110846;28;20448;-62
2021/12/23 03:30:54;;;;;;;19.65;14.52;;;;;;;;;;5111426;28;20035;-62
2021/12/23 03:33:21;;;;;;;19.00;15.35;;;;;;;;;;5111560;28;20047;-62
2021/12/23 03:35:47;;;;;;;20.08;14.77;;;;;;;;;;5110549;28;20048;-62
2021/12/23 03:38:14;;;;;;;19.40;14.73;;;;;;;;;;5111642;28;20044;-62
2021/12/23 03:40:41;;;;;;;20.38;15.20;;;;;;;;;;5111185;28;20101;-62
2021/12/23 03:43:10;;;;;;;18.95;14.52;;;;;;;;;;5111086;28;20539;-62
2021/12/23 03:45:38;;;;;;;21.20;15.00;;;;;;;;;;5114667;28;20046;-62
2021/12/23 03:48:05;;;;;;;20.77;15.77;;;;;;;;;;5114489;28;20050;-62
2021/12/23 03:50:31;;;;;;;19.02;14.90;;;;;;;;;;5115916;28;20120;-62
2021/12/23 03:52:57;;;;;;;20.08;16.27;;;;;;;;;;5115517;28;20051;-62
2021/12/23 03:55:24;;;;;;;19.23;14.60;;;;;;;;;;5115051;28;20039;-62
2021/12/23 03:57:50;;;;;;;21.42;15.23;;;;;;;;;;5115091;28;20542;-62
2021/12/23 04:00:17;;;;;;;20.75;15.93;;;;;;;;;;5115479;28;20449;-62
2021/12/23 04:02:45;;;;;;;22.13;16.70;;;;;;;;;;5114368;28;20043;-62
2021/12/23 04:05:12;;;;;;;17.92;14.57;;;;;;;;;;5115440;28;20048;-62
2021/12/23 04:07:38;;;;;;;20.17;15.75;;;;;;;;;;5115438;28;20039;-62
2021/12/23 04:10:05;;;;;;;21.25;16.15;;;;;;;;;;5114406;28;20039;-62
2021/12/23 04:12:31;;;;;;;21.58;16.45;;;;;;;;;;5115264;28;20044;-62
2021/12/23 04:14:58;;;;;;;23.40;16.52;;;;;;;;;;5114938;28;20112;-62
2021/12/23 04:17:24;;;;;;;18.95;15.13;;;;;;;;;;5114336;28;20051;-62
2021/12/23 04:19:52;;;;;;;21.25;16.55;;;;;;;;;;5115020;28;20043;-62
2021/12/23 04:22:18;;;;;;;20.15;15.68;;;;;;;;;;5115058;28;20047;-62
2021/12/23 04:24:44;;;;;;;18.58;15.23;;;;;;;;;;5114003;28;20044;-62
2021/12/23 04:27:10;;;;;;;21.08;16.23;;;;;;;;;;5114866;28;20044;-62
2021/12/23 04:29:36;;;;;;;22.40;17.45;;;;;;;;;;5114935;28;20043;-62
2021/12/23 04:32:03;;;;;;;21.60;15.85;;;;;;;;;;5113716;28;20472;-62
2021/12/23 04:34:29;;;;;;;22.52;17.20;;;;;;;;;;5114613;28;20505;-62
2021/12/23 04:36:57;;;;;;;19.92;15.82;;;;;;;;;;5113943;28;20047;-62
2021/12/23 04:39:23;;;;;;;22.80;16.75;;;;;;;;;;5114873;28;20109;-62
2021/12/23 04:41:49;;;;;;;24.30;17.02;;;;;;;;;;5114467;27;20486;-62
2021/12/23 04:44:15;;;;;;;19.77;15.68;;;;;;;;;;5113769;28;20051;-62
2021/12/23 04:46:41;;;;;;;23.23;17.10;;;;;;;;;;5114595;27;20105;-63
2021/12/23 04:49:08;;;;;;;21.05;16.60;;;;;;;;;;5114604;28;20452;-62
2021/12/23 04:51:34;;;;;;;22.75;16.83;;;;;;;;;;5113991;28;20112;-62
2021/12/23 04:54:01;;;;;;;22.23;16.48;;;;;;;;;;5114318;28;20078;-62
2021/12/23 04:56:28;;;;;;;20.67;16.15;;;;;;;;;;5114515;28;20039;-62
2021/12/23 04:58:54;;;;;;;21.88;17.13;;;;;;;;;;5113175;28;20039;-62
2021/12/23 05:01:20;;;;;;;21.70;16.40;;;;;;;;;;5114340;28;20555;-62
2021/12/23 05:03:48;;;;;;;21.98;17.15;;;;;;;;;;5114045;28;20073;-62
2021/12/23 05:06:14;;;;;;;22.05;17.05;;;;;;;;;;5113293;28;20098;-62
2021/12/23 05:08:40;;;;;;;23.05;16.27;;;;;;;;;;5114237;28;20055;-62
2021/12/23 05:11:09;;;;;;;21.95;17.10;;;;;;;;;;5113984;28;20513;-62
2021/12/23 05:13:35;;;;;;;24.77;17.15;;;;;;;;;;5115535;28;20048;-62
2021/12/23 05:16:01;;;;;;;23.13;17.70;;;;;;;;;;5114002;28;20051;-62
2021/12/23 05:18:27;;;;;;;23.30;18.00;;;;;;;;;;5114135;28;20093;-62
2021/12/23 05:20:54;;;;;;;23.77;17.10;;;;;;;;;;5112979;28;20112;-62
2021/12/23 05:23:20;;;;;;;22.50;17.52;;;;;;;;;;5113910;28;20044;-62
2021/12/23 05:25:46;;;;;;;24.73;17.77;;;;;;;;;;5113589;28;20089;-62
2021/12/23 05:28:14;;;;;;;22.48;17.45;;;;;;;;;;5113006;28;20060;-62
2021/12/23 05:30:40;;;;;;;24.52;18.50;;;;;;;;;;5114015;28;20047;-62
2021/12/23 05:33:06;;;;;;;23.02;17.75;;;;;;;;;;5113566;28;20100;-61
2021/12/23 05:35:33;;;;;;;23.50;17.55;;;;;;;;;;5113516;28;20055;-62
2021/12/23 05:37:59;;;;;;;24.73;18.50;;;;;;;;;;5113502;28;20104;-62
2021/12/23 05:40:28;;;;;;;22.30;18.05;;;;;;;;;;5112679;27;20533;-61
2021/12/23 05:42:55;;;;;;;25.00;17.67;;;;;;;;;;5113138;28;20054;-63
2021/12/23 05:45:22;;;;;;;24.35;18.35;;;;;;;;;;5113777;27;20047;-62
2021/12/23 05:47:49;;;;;;;25.52;19.65;;;;;;;;;;5112614;28;20100;-62
2021/12/23 05:50:16;;;;;;;26.02;19.65;;;;;;;;;;5113444;28;20100;-61
2021/12/23 05:52:42;;;;;;;24.58;18.67;;;;;;;;;;5113129;28;20073;-62
2021/12/23 05:55:10;;;;;;;23.98;18.60;;;;;;;;;;5112449;28;20120;-61
2021/12/23 05:57:36;;;;;;;22.13;17.83;;;;;;;;;;5113321;28;20104;-62
2021/12/23 06:00:04;;;;;;;25.00;18.60;;;;;;;;;;5113036;28;20093;-61
2021/12/23 06:02:31;;;;;;;26.55;18.48;;;;;;;;;;5112406;28;20101;-61
2021/12/23 06:04:57;;;;;;;27.80;20.70;;;;;;;;;;5113160;28;20052;-62
2021/12/23 06:07:24;;;;;;;25.02;18.55;;;;;;;;;;5112325;28;20048;-62
2021/12/23 06:09:50;;;;;;;26.85;19.90;;;;;;;;;;5112658;28;20048;-61
2021/12/23 06:12:17;;;;;;;27.77;19.35;;;;;;;;;;5113013;28;20050;-61
2021/12/23 06:14:43;;;;;;;25.98;18.58;;;;;;;;;;5112884;27;20093;-62
2021/12/23 06:17:09;;;;;;;24.95;18.52;;;;;;;;;;5112041;28;20055;-62
2021/12/23 06:19:37;;;;;;;26.00;19.73;;;;;;;;;;5112899;28;20096;-64
2021/12/23 06:22:03;;;;;;;27.08;20.50;;;;;;;;;;5112528;28;20096;-62
2021/12/23 06:24:31;;;;;;;27.00;19.52;;;;;;;;;;5111739;28;20056;-61
2021/12/23 06:26:57;;;;;;;26.67;19.10;;;;;;;;;;5112069;28;20043;-62
2021/12/23 06:29:23;;;;;;;25.63;19.17;;;;;;;;;;5089337;28;20048;-62
2021/12/23 06:31:50;;;;;;;27.58;20.08;;;;;;;;;;5105273;28;20052;-62
2021/12/23 06:34:16;;;;;;;26.55;19.55;;;;;;;;;;5112441;28;20040;-62
2021/12/23 06:36:44;;;;;;;27.17;19.42;;;;;;;;;;5111318;28;20047;-61
2021/12/23 06:39:10;;;;;;;26.02;18.85;;;;;;;;;;5112529;28;20051;-62
2021/12/23 06:41:36;;;;;;;26.25;19.95;;;;;;;;;;5112859;28;20052;-61
2021/12/23 06:44:03;;;;;;;28.20;20.13;;;;;;;;;;5110691;27;20096;-61
2021/12/23 06:46:29;;;;;;;27.63;20.58;;;;;;;;;;5111829;28;20043;-62
2021/12/23 06:48:55;;;;;;;28.08;20.55;;;;;;;;;;5112031;28;20072;-62
2021/12/23 06:51:21;;;;;;;24.55;18.35;;;;;;;;;;5111083;28;20104;-61
2021/12/23 06:53:49;;;;;;;25.58;19.05;;;;;;;;;;5111645;28;20040;-61
2021/12/23 06:56:17;;;;;;;26.30;19.83;;;;;;;;;;5111983;28;20050;-62
2021/12/23 06:58:48;;;;;;;25.20;18.83;;;;;;;;;;5110626;28;20074;-62
2021/12/23 07:01:17;;;;;;;28.65;19.60;;;;;;;;;;5111651;28;20048;-63
2021/12/23 07:04:02;;;;;;;27.60;20.20;;;;;;;;;;5111335;28;20073;-62
2021/12/23 07:06:30;;;;;;;27.10;18.65;;;;;;;;;;5110084;28;20458;-62
2021/12/23 07:08:58;;;;;;;27.38;19.38;;;;;;;;;;5111020;28;20390;-63
2021/12/23 07:11:25;;;;;;;27.48;19.58;;;;;;;;;;5111584;28;20039;-63
2021/12/23 07:13:51;;;;;;;27.38;19.13;;;;;;;;;;5110213;28;20043;-63
2021/12/23 07:16:17;;;;;;;26.77;18.88;;;;;;;;;;5111530;28;20047;-62
2021/12/23 07:18:43;;;;;;;27.27;19.52;;;;;;;;;;5109456;28;20595;-64
2021/12/23 07:21:10;;;;;;;27.15;19.98;;;;;;;;;;5111142;28;20048;-64
2021/12/23 07:23:36;;;;;;;29.08;20.15;;;;;;;;;;5111887;28;20093;-62
2021/12/23 07:26:03;;;;;;;28.30;19.90;;;;;;;;;;5110567;28;20076;-62
2021/12/23 07:28:30;;;;;;;28.13;19.25;;;;;;;;;;5111588;28;20104;-61
2021/12/23 07:30:56;;;;;;;27.75;19.85;;;;;;;;;;5111158;28;20051;-61
2021/12/23 07:33:22;;;;;;;26.27;19.08;;;;;;;;;;5110834;28;20048;-61
2021/12/23 07:35:49;;;;;;;30.17;20.58;;;;;;;;;;5111601;28;20043;-61
2021/12/23 07:38:15;;;;;;;29.52;19.90;;;;;;;;;;5111399;28;20039;-61
2021/12/23 07:40:42;;;;;;;26.63;20.00;;;;;;;;;;5110730;28;20043;-61
2021/12/23 07:43:21;;;;;;;27.33;20.55;;;;;;;;;;5112180;28;20047;-62
2021/12/23 07:45:47;;;;;;;27.30;19.90;;;;;;;;;;5111463;28;20044;-61
2021/12/23 07:48:14;;;;;;;27.60;20.20;;;;;;;;;;5110753;28;20043;-61
2021/12/23 07:50:41;;;;;;;28.65;20.60;;;;;;;;;;5111752;28;20051;-61
2021/12/23 07:53:07;;;;;;;26.75;19.70;;;;;;;;;;5111368;28;20043;-61
2021/12/23 07:55:33;;;;;;;28.77;20.60;;;;;;;;;;5110619;28;20039;-61
2021/12/23 07:57:59;;;;;;;29.38;19.85;;;;;;;;;;5111133;28;20040;-61
2021/12/23 08:00:29;;;;;;;29.13;20.38;;;;;;;;;;5111192;28;20052;-61
2021/12/23 08:02:57;;;;;;;29.60;20.50;;;;;;;;;;5110418;28;20127;-61
2021/12/23 08:05:23;;;;;;;30.42;22.02;;;;;;;;;;5111278;28;20104;-61
2021/12/23 08:07:50;;;;;;;29.70;21.00;;;;;;;;;;5110951;28;20558;-61
2021/12/23 08:10:16;;;;;;;29.98;21.55;;;;;;;;;;5111037;28;20040;-61
2021/12/23 08:12:42;;;;;;;29.05;20.98;;;;;;;;;;5111011;28;20431;-61
2021/12/23 08:15:09;;;;;;;30.58;21.33;;;;;;;;;;5110779;28;21110;-61
2021/12/23 08:17:37;;;;;;;29.20;20.98;;;;;;;;;;5111600;28;20039;-61
2021/12/23 08:20:03;;;;;;;29.77;21.33;;;;;;;;;;5111002;28;20100;-61
2021/12/23 08:22:30;;;;;;;30.38;21.90;;;;;;;;;;5110642;28;20489;-61
2021/12/23 08:24:56;;;;;;;30.70;21.27;;;;;;;;;;5110857;28;20361;-61
2021/12/23 08:27:26;;;;;;;28.88;21.00;;;;;;;;;;5111277;28;20051;-61
2021/12/23 08:29:52;;;;;;;32.83;22.27;;;;;;;;;;5110161;28;20074;-61
2021/12/23 08:32:19;;;;;;;30.55;21.73;;;;;;;;;;5114961;28;20437;-61
2021/12/23 08:34:47;;;;;;;30.88;21.98;;;;;;;;;;5114839;28;20047;-61
2021/12/23 08:37:14;;;;;;;31.60;21.88;;;;;;;;;;5114242;28;20481;-61
2021/12/23 08:39:40;;;;;;;30.42;21.60;;;;;;;;;;5115508;27;20055;-61
2021/12/23 08:42:07;;;;;;;30.05;21.35;;;;;;;;;;5114717;28;20051;-61
2021/12/23 08:44:33;;;;;;;29.25;20.80;;;;;;;;;;5114291;28;20051;-61
2021/12/23 08:47:00;;;;;;;34.03;22.88;;;;;;;;;;5114495;28;20439;-61
2021/12/23 08:49:26;;;;;;;30.42;21.98;;;;;;;;;;5114616;28;20534;-64
2021/12/23 08:51:54;;;;;;;30.15;21.00;;;;;;;;;;5113742;28;20043;-62
2021/12/23 08:54:20;;;;;;;30.55;20.40;;;;;;;;;;5114694;28;20051;-62
2021/12/23 08:56:47;;;;;;;32.00;22.17;;;;;;;;;;5114208;28;20546;-64
2021/12/23 08:59:13;;;;;;;32.08;22.15;;;;;;;;;;5113966;28;20074;-64
2021/12/23 09:01:40;;;;;;;31.33;21.15;;;;;;;;;;5114590;28;20039;-62
2021/12/23 09:04:06;;;;;;;29.80;20.55;;;;;;;;;;5114147;28;20062;-62
2021/12/23 09:06:32;;;;;;;31.17;20.58;;;;;;;;;;5113925;28;20066;-62
2021/12/23 09:09:00;;;;;;;30.35;20.70;;;;;;;;;;5113970;28;20447;-62
2021/12/23 09:11:26;;;;;;;28.85;20.85;;;;;;;;;;5113731;28;20047;-62
2021/12/23 09:13:52;;;;;;;33.17;21.52;;;;;;;;;;5114077;28;20035;-62
2021/12/23 09:16:19;;;;;;;31.38;22.60;;;;;;;;;;5114022;28;20085;-62
2021/12/23 09:18:45;;;;;;;30.65;20.60;;;;;;;;;;5112780;28;20044;-62
2021/12/23 09:21:12;;;;;;;35.30;22.50;;;;;;;;;;5113581;28;20093;-62
2021/12/23 09:23:38;;;;;;;30.88;22.17;;;;;;;;;;5114111;28;20125;-62
2021/12/23 09:26:09;;;;;;;33.05;22.13;;;;;;;;;;5113107;28;20040;-62
2021/12/23 09:28:51;;;;;;;34.15;23.02;;;;;;;;;;5114182;28;20135;-62
2021/12/23 09:34:01;;;;;;;32.65;23.17;;;;;;;;;;5114876;28;20907;-63
2021/12/23 09:36:27;;;;;;;35.08;23.52;;;;;;;;;;5113916;28;20097;-62
2021/12/23 09:38:53;;;;;;;30.52;21.70;;;;;;;;;;5113666;28;20073;-62
2021/12/23 09:41:22;;;;;;;32.95;22.25;;;;;;;;;;5112823;27;20109;-62
2021/12/23 09:43:49;;;;;;;33.08;22.67;;;;;;;;;;5112544;28;20531;-62
2021/12/23 09:46:17;;;;;;;35.17;24.33;;;;;;;;;;5113750;28;20451;-62
2021/12/23 09:48:44;;;;;;;34.13;22.75;;;;;;;;;;5113044;28;20044;-62
2021/12/23 09:51:11;;;;;;;32.97;22.27;;;;;;;;;;5113697;28;20048;-62
2021/12/23 09:53:38;;;;;;;32.15;22.77;;;;;;;;;;5112729;28;20109;-62
2021/12/23 09:56:05;;;;;;;33.78;23.25;;;;;;;;;;5113097;28;20451;-62
2021/12/23 09:58:33;;;;;;;31.75;22.98;;;;;;;;;;5113397;28;20051;-61
2021/12/23 10:01:00;;;;;;;35.55;23.00;;;;;;;;;;5112197;28;20047;-61
2021/12/23 10:03:26;;;;;;;34.20;22.17;;;;;;;;;;5113522;28;20043;-62
2021/12/23 10:05:53;;;;;;;35.35;23.63;;;;;;;;;;5113129;27;20420;-61
2021/12/23 10:08:20;;;;;;;34.30;23.17;;;;;;;;;;5112565;28;20104;-61
2021/12/23 10:10:51;;;;;;;33.95;23.67;;;;;;;;;;5112944;27;20474;-61
2021/12/23 10:30:17;;;;;;;33.78;23.42;;;;;;;;;;5111667;28;20168;-62
2021/12/23 10:33:13;;;;;;;36.95;24.23;;;;;;;;;;5091730;28;20569;-62
2021/12/23 10:38:25;;;;;;;34.38;23.45;;;;;;;;;;5092306;28;20481;-62
2021/12/23 10:40:52;;;;;;;35.70;24.05;;;;;;;;;;5091947;28;20052;-65
2021/12/23 10:43:25;;;;;;;35.90;23.23;;;;;;;;;;5091545;28;20040;-62
2021/12/23 10:45:55;;;;;;;33.13;23.38;;;;;;;;;;5091944;28;20056;-63
2021/12/23 10:48:24;;;;;;;36.15;22.52;;;;;;;;;;5092177;28;20070;-64
2021/12/23 10:50:56;;;;;;;33.30;21.58;;;;;;;;;;5090970;28;20063;-62
2021/12/23 10:53:39;;;;;;;31.17;21.65;;;;;;;;;;5091698;28;20074;-62
2021/12/23 10:59:01;;;;;;;34.50;22.88;;;;;;;;;;5095853;28;20051;-62
2021/12/23 11:01:27;;;;;;;34.10;22.65;;;;;;;;;;5112263;28;20101;-61
2021/12/23 11:03:59;;;;;;;30.83;21.52;;;;;;;;;;5111343;28;20124;-62
2021/12/23 11:06:31;;;;;;;35.42;23.25;;;;;;;;;;5111962;28;20055;-61
2021/12/23 11:09:13;;;;;;;35.65;22.10;;;;;;;;;;5111722;28;20071;-62
2021/12/23 11:12:10;;;;;;;31.52;21.80;;;;;;;;;;5105466;28;20130;-62
2021/12/23 11:37:07;;;;;;;35.35;22.83;;;;;;;;;;5111906;28;20405;-63
2021/12/23 11:39:46;;;;;;;35.70;22.33;;;;;;;;;;5110727;28;20074;-63
2021/12/23 11:42:17;;;;;;;36.72;24.17;;;;;;;;;;5111818;28;20050;-62
2021/12/23 11:44:44;;;;;;;33.80;23.38;;;;;;;;;;5111184;28;20051;-63
2021/12/23 11:47:13;;;;;;;34.80;24.00;;;;;;;;;;5110556;28;20054;-63
2021/12/23 11:49:42;;;;;;;36.35;23.55;;;;;;;;;;5111422;28;20417;-62
2021/12/23 11:52:10;;;;;;;37.92;24.58;;;;;;;;;;5111918;28;20092;-63
2021/12/23 11:54:37;;;;;;;34.10;22.77;;;;;;;;;;5110839;28;20043;-63
2021/12/23 11:57:04;;;;;;;31.27;21.50;;;;;;;;;;5111326;28;20073;-63
2021/12/23 11:59:31;;;;;;;34.55;22.60;;;;;;;;;;5111433;28;20481;-63
2021/12/23 12:01:58;;;;;;;33.83;22.95;;;;;;;;;;5110352;28;20093;-63
2021/12/23 12:04:26;;;;;;;31.23;21.55;;;;;;;;;;5111617;28;20047;-63
2021/12/23 12:06:53;;;;;;;32.25;22.63;;;;;;;;;;5114695;28;20122;-64
2021/12/23 12:09:22;;;;;;;34.83;22.52;;;;;;;;;;5114597;28;20551;-64
2021/12/23 12:11:50;;;;;;;34.38;22.50;;;;;;;;;;5115154;28;20040;-62
2021/12/23 12:14:31;;;;;;;36.28;23.15;;;;;;;;;;5114508;28;20043;-66
2021/12/23 12:17:17;;;;;;;33.53;21.90;;;;;;;;;;5111497;28;20043;-65
2021/12/23 12:19:54;;;;;;;35.22;23.30;;;;;;;;;;5114924;28;20101;-63
2021/12/23 12:22:35;;;;;;;36.05;23.42;;;;;;;;;;5114658;28;20072;-63
2021/12/23 12:25:03;;;;;;;35.88;24.05;;;;;;;;;;5114761;28;20048;-65
2021/12/23 12:27:30;;;;;;;35.95;23.70;;;;;;;;;;5101613;28;20060;-63
2021/12/23 12:30:04;;;;;;;35.65;23.23;;;;;;;;;;5093311;28;20048;-63
2021/12/23 12:32:34;;;;;;;36.10;23.55;;;;;;;;;;5114122;28;20448;-64
2021/12/23 12:35:00;;;;;;;34.78;23.02;;;;;;;;;;5114499;28;20047;-63
2021/12/23 12:37:40;;;;;;;35.17;23.65;;;;;;;;;;5113881;28;20039;-64
2021/12/23 12:40:08;;;;;;;33.60;22.58;;;;;;;;;;5113273;28;20051;-64
2021/12/23 12:42:38;;;;;;;35.08;23.85;;;;;;;;;;5113114;28;20043;-63
2021/12/23 12:45:10;;;;;;;34.30;23.25;;;;;;;;;;5114278;28;20051;-63
2021/12/23 12:47:47;;;;;;;34.92;23.73;;;;;;;;;;5114490;28;20044;-63
2021/12/23 12:50:15;;;;;;;32.80;22.17;;;;;;;;;;5113795;28;20047;-64
2021/12/23 12:52:43;;;;;;;36.50;23.60;;;;;;;;;;5114489;28;20051;-65
2021/12/23 12:55:12;;;;;;;34.03;22.40;;;;;;;;;;5114453;28;20090;-64
2021/12/23 12:57:39;;;;;;;33.05;22.77;;;;;;;;;;5113272;28;20040;-64
2021/12/23 13:00:35;;;;;;;34.90;24.00;;;;;;;;;;5114392;28;20090;-65
2021/12/23 13:03:05;;;;;;;34.60;23.35;;;;;;;;;;5078462;28;20051;-64
2021/12/23 13:05:33;;;;;;;34.85;23.25;;;;;;;;;;5113560;28;20085;-64
2021/12/23 13:08:05;;;;;;;38.13;23.40;;;;;;;;;;5113976;27;20093;-64
2021/12/23 13:10:33;;;;;;;37.08;23.45;;;;;;;;;;5113342;28;20498;-65
2021/12/23 13:13:01;;;;;;;33.72;22.52;;;;;;;;;;5113214;28;20047;-65
2021/12/23 13:15:31;;;;;;;33.10;22.02;;;;;;;;;;5113147;28;20406;-65
2021/12/23 13:17:58;;;;;;;32.97;21.77;;;;;;;;;;5110548;28;20092;-62
2021/12/23 13:20:32;;;;;;;37.83;23.65;;;;;;;;;;5114347;28;20116;-63
2021/12/23 13:22:59;;;;;;;34.60;22.98;;;;;;;;;;5113686;28;20050;-62
2021/12/23 13:25:26;;;;;;;33.33;22.60;;;;;;;;;;5113272;28;20040;-63
2021/12/23 13:27:54;;;;;;;38.40;25.33;;;;;;;;;;5113681;28;20440;-63
2021/12/23 13:30:20;;;;;;;35.78;24.20;;;;;;;;;;5114187;28;20452;-62
2021/12/23 13:32:56;;;;;;;36.25;23.85;;;;;;;;;;5112779;28;20048;-62
2021/12/23 13:35:22;;;;;;;37.42;24.08;;;;;;;;;;5114039;28;20387;-62
2021/12/23 13:37:49;;;;;;;33.60;22.75;;;;;;;;;;5113384;28;20474;-62
2021/12/23 13:40:25;;;;;;;34.55;22.70;;;;;;;;;;5113186;27;20543;-63
2021/12/23 13:42:51;;;;;;;34.88;22.98;;;;;;;;;;5113644;28;20048;-62
2021/12/23 13:45:19;;;;;;;37.50;23.98;;;;;;;;;;5113955;27;20451;-62
2021/12/23 13:47:45;;;;;;;37.00;23.30;;;;;;;;;;5112389;28;20456;-62
2021/12/23 13:50:12;;;;;;;35.25;23.70;;;;;;;;;;5113648;28;20047;-62
2021/12/23 13:52:40;;;;;;;33.55;23.10;;;;;;;;;;5113146;28;20120;-62
2021/12/23 13:55:07;;;;;;;35.30;24.00;;;;;;;;;;5113468;28;20063;-62
2021/12/23 13:57:35;;;;;;;38.13;23.20;;;;;;;;;;5114351;28;20089;-62
2021/12/23 14:00:01;;;;;;;36.50;23.65;;;;;;;;;;5112298;28;20120;-62
2021/12/23 14:02:29;;;;;;;35.42;23.60;;;;;;;;;;5113391;28;20047;-62
2021/12/23 14:04:58;;;;;;;32.88;22.27;;;;;;;;;;5112549;28;20497;-62
2021/12/23 14:07:26;;;;;;;38.63;24.30;;;;;;;;;;5112712;28;20048;-62
2021/12/23 14:09:53;;;;;;;36.53;23.75;;;;;;;;;;5113060;28;20092;-62
2021/12/23 14:12:21;;;;;;;36.83;23.40;;;;;;;;;;5113128;28;20052;-62
2021/12/23 14:15:01;;;;;;;35.25;22.73;;;;;;;;;;5112164;28;20073;-61
2021/12/23 14:17:30;;;;;;;37.97;25.08;;;;;;;;;;5112894;28;20047;-62
2021/12/23 14:23:11;;;;;;;34.75;22.55;;;;;;;;;;5112936;28;20046;-62
2021/12/23 14:25:29;;;;;;;38.03;22.95;;;;;;;;;;5113477;28;20127;-62
2021/12/23 14:27:56;;;;;;;35.30;23.95;;;;;;;;;;5111312;28;20424;-62
2021/12/23 14:30:33;;;;;;;37.55;24.42;;;;;;;;;;5112593;28;20478;-62
2021/12/23 14:33:08;;;;;;;37.42;23.08;;;;;;;;;;5112802;27;20047;-62
2021/12/23 14:35:34;;;;;;;38.97;24.53;;;;;;;;;;5112137;28;20047;-62
2021/12/23 14:38:02;;;;;;;37.25;23.88;;;;;;;;;;5112356;28;20482;-62
2021/12/23 14:40:28;;;;;;;36.85;23.92;;;;;;;;;;5112585;28;20475;-61
2021/12/23 14:42:58;;;;;;;38.10;24.63;;;;;;;;;;5111651;28;20043;-61
2021/12/23 14:45:24;;;;;;;37.80;24.30;;;;;;;;;;5112501;28;20482;-62
2021/12/23 14:47:58;;;;;;;41.03;25.23;;;;;;;;;;5112363;28;20062;-62
2021/12/23 14:50:26;;;;;;;37.08;23.85;;;;;;;;;;5111666;28;20040;-62
2021/12/23 14:52:54;;;;;;;38.70;25.00;;;;;;;;;;5112097;28;20057;-62
2021/12/23 14:55:22;;;;;;;35.90;23.63;;;;;;;;;;5112103;28;20406;-62
2021/12/23 14:57:49;;;;;;;36.45;24.63;;;;;;;;;;5111404;28;20069;-61
2021/12/23 15:00:17;;;;;;;38.20;24.88;;;;;;;;;;5112015;27;20044;-61
2021/12/23 15:02:45;;;;;;;39.20;25.40;;;;;;;;;;5112104;28;20105;-61
2021/12/23 15:05:14;;;;;;;38.58;24.13;;;;;;;;;;5111144;28;20108;-61
2021/12/23 15:07:53;;;;;;;36.38;23.48;;;;;;;;;;5112398;28;20039;-61
2021/12/23 15:10:26;;;;;;;37.05;23.35;;;;;;;;;;5111262;28;20101;-61
2021/12/23 15:12:52;;;;;;;36.40;24.02;;;;;;;;;;5112016;28;20088;-61
2021/12/23 15:15:18;;;;;;;38.80;25.15;;;;;;;;;;5111874;28;20089;-61